createdAt,value
2017-09-13T00:00:24.680Z,0
2017-09-13T00:01:24.372Z,0
2017-09-13T00:02:24.391Z,0
2017-09-13T00:03:24.503Z,0
2017-09-13T00:04:24.102Z,0
2017-09-13T00:05:24.674Z,0
2017-09-13T00:06:24.989Z,0
2017-09-13T00:07:24.155Z,0
2017-09-13T00:08:24.919Z,0
2017-09-13T00:09:25.318Z,0
2017-09-13T00:10:24.244Z,0
2017-09-13T00:11:24.968Z,0
2017-09-13T00:12:24.344Z,0
2017-09-13T00:13:25.023Z,0
2017-09-13T00:14:24.310Z,0
2017-09-13T00:15:24.964Z,0
2017-09-13T00:16:25.070Z,0
2017-09-13T00:17:25.376Z,0
2017-09-13T00:18:24.778Z,0
2017-09-13T00:19:24.393Z,0
2017-09-13T00:20:24.802Z,0
2017-09-13T00:21:24.447Z,0
2017-09-13T00:22:25.420Z,0
2017-09-13T00:23:25.323Z,0
2017-09-13T00:24:25.456Z,0
2017-09-13T00:25:25.909Z,0
2017-09-13T00:26:25.376Z,0
2017-09-13T00:27:24.719Z,0
2017-09-13T00:28:25.060Z,0
2017-09-13T00:29:25.382Z,0
2017-09-13T00:30:25.065Z,0
2017-09-13T00:31:24.920Z,0
2017-09-13T00:32:25.278Z,0
2017-09-13T00:33:25.440Z,0
2017-09-13T00:34:24.451Z,0
2017-09-13T00:35:25.337Z,0
2017-09-13T00:36:24.792Z,0
2017-09-13T00:37:25.458Z,0
2017-09-13T00:38:25.714Z,0
2017-09-13T00:39:25.211Z,0
2017-09-13T00:40:25.112Z,0
2017-09-13T00:41:25.452Z,0
2017-09-13T00:42:25.676Z,0
2017-09-13T00:43:25.161Z,0
2017-09-13T00:44:25.180Z,0
2017-09-13T00:45:24.923Z,0
2017-09-13T00:46:25.218Z,0
2017-09-13T00:47:25.230Z,0
2017-09-13T00:48:25.258Z,0
2017-09-13T00:49:25.612Z,0
2017-09-13T00:50:24.974Z,0
2017-09-13T00:51:25.320Z,0
2017-09-13T00:52:24.819Z,0
2017-09-13T00:53:25.025Z,0
2017-09-13T00:54:25.694Z,0
2017-09-13T00:55:25.846Z,0
2017-09-13T00:56:26.054Z,0
2017-09-13T00:57:25.857Z,0
2017-09-13T00:58:25.458Z,0
2017-09-13T00:59:25.957Z,0
2017-09-13T01:00:24.840Z,0
2017-09-13T01:01:25.557Z,0
2017-09-13T01:02:24.877Z,0
2017-09-13T01:03:25.359Z,0
2017-09-13T01:04:25.251Z,0
2017-09-13T01:05:25.666Z,0
2017-09-13T01:06:24.975Z,0
2017-09-13T01:07:25.615Z,0
2017-09-13T01:08:26.283Z,0
2017-09-13T01:09:26.292Z,0
2017-09-13T01:10:25.681Z,0
2017-09-13T01:11:26.133Z,0
2017-09-13T01:12:26.559Z,0
2017-09-13T01:13:26.382Z,0
2017-09-13T01:14:26.071Z,0
2017-09-13T01:15:25.783Z,0
2017-09-13T01:16:26.211Z,0
2017-09-13T01:17:26.304Z,0
2017-09-13T01:18:25.660Z,0
2017-09-13T01:19:25.537Z,0
2017-09-13T01:20:26.170Z,0
2017-09-13T01:21:25.923Z,0
2017-09-13T01:22:25.887Z,0
2017-09-13T01:23:26.555Z,0
2017-09-13T01:24:25.711Z,0
2017-09-13T01:25:26.413Z,0
2017-09-13T01:26:25.712Z,0
2017-09-13T01:27:26.648Z,0
2017-09-13T01:28:26.071Z,0
2017-09-13T01:29:26.044Z,0
2017-09-13T01:30:26.770Z,0
2017-09-13T01:31:26.806Z,0
2017-09-13T01:32:26.846Z,0
2017-09-13T01:33:25.804Z,0
2017-09-13T01:34:25.786Z,0
2017-09-13T01:35:26.133Z,0
2017-09-13T01:36:26.161Z,0
2017-09-13T01:37:26.196Z,0
2017-09-13T01:38:26.524Z,0
2017-09-13T01:39:26.227Z,0
2017-09-13T01:40:26.547Z,0
2017-09-13T01:41:26.241Z,0
2017-09-13T01:42:27.042Z,0
2017-09-13T01:43:27.382Z,0
2017-09-13T01:44:25.983Z,0
2017-09-13T01:45:26.322Z,0
2017-09-13T01:46:26.049Z,0
2017-09-13T01:47:26.797Z,0
2017-09-13T01:48:26.795Z,0
2017-09-13T01:49:26.727Z,0
2017-09-13T01:50:26.738Z,0
2017-09-13T01:51:26.437Z,0
2017-09-13T01:52:26.459Z,0
2017-09-13T01:53:27.138Z,0
2017-09-13T01:54:26.167Z,0
2017-09-13T01:55:27.228Z,0
2017-09-13T01:56:26.839Z,0
2017-09-13T01:57:26.536Z,0
2017-09-13T01:58:26.231Z,0
2017-09-13T01:59:26.578Z,0
2017-09-13T02:00:26.296Z,0
2017-09-13T02:01:27.268Z,0
2017-09-13T02:02:26.666Z,0
2017-09-13T02:03:26.358Z,0
2017-09-13T02:04:26.671Z,0
2017-09-13T02:05:27.010Z,0
2017-09-13T02:06:27.036Z,0
2017-09-13T02:07:27.049Z,0
2017-09-13T02:08:27.080Z,0
2017-09-13T02:09:27.093Z,0
2017-09-13T02:10:27.425Z,0
2017-09-13T02:11:26.488Z,0
2017-09-13T02:12:26.500Z,0
2017-09-13T02:13:27.485Z,0
2017-09-13T02:14:26.874Z,0
2017-09-13T02:15:26.874Z,0
2017-09-13T02:16:26.922Z,0
2017-09-13T02:17:27.778Z,0
2017-09-13T02:18:26.639Z,0
2017-09-13T02:19:26.839Z,0
2017-09-13T02:20:27.638Z,0
2017-09-13T02:21:27.299Z,0
2017-09-13T02:22:27.322Z,0
2017-09-13T02:23:27.062Z,0
2017-09-13T02:24:27.043Z,0
2017-09-13T02:25:26.983Z,0
2017-09-13T02:26:27.413Z,0
2017-09-13T02:27:27.418Z,0
2017-09-13T02:28:27.441Z,0
2017-09-13T02:29:27.130Z,0
2017-09-13T02:30:26.506Z,0
2017-09-13T02:31:26.850Z,0
2017-09-13T02:32:27.184Z,0
2017-09-13T02:33:26.581Z,0
2017-09-13T02:34:27.221Z,0
2017-09-13T02:35:26.920Z,0
2017-09-13T02:36:26.934Z,0
2017-09-13T02:37:27.787Z,0
2017-09-13T02:38:27.520Z,0
2017-09-13T02:39:27.017Z,0
2017-09-13T02:40:26.692Z,0
2017-09-13T02:41:27.345Z,0
2017-09-13T02:42:27.379Z,0
2017-09-13T02:43:27.393Z,0
2017-09-13T02:44:27.748Z,0
2017-09-13T02:45:27.111Z,0
2017-09-13T02:46:27.880Z,0
2017-09-13T02:47:27.178Z,0
2017-09-13T02:48:27.150Z,0
2017-09-13T02:49:27.949Z,0
2017-09-13T02:50:28.166Z,0
2017-09-13T02:51:27.593Z,0
2017-09-13T02:52:27.563Z,0
2017-09-13T02:53:27.580Z,0
2017-09-13T02:54:27.748Z,0
2017-09-13T02:55:27.701Z,0
2017-09-13T02:56:27.888Z,0
2017-09-13T02:57:27.652Z,0
2017-09-13T02:58:27.516Z,0
2017-09-13T02:59:27.351Z,0
2017-09-13T03:00:27.370Z,0
2017-09-13T03:01:27.146Z,0
2017-09-13T03:02:27.421Z,0
2017-09-13T03:03:27.441Z,0
2017-09-13T03:04:27.935Z,0
2017-09-13T03:05:27.785Z,0
2017-09-13T03:06:27.810Z,0
2017-09-13T03:07:28.088Z,0
2017-09-13T03:08:27.857Z,0
2017-09-13T03:09:27.925Z,0
2017-09-13T03:10:27.874Z,0
2017-09-13T03:11:27.904Z,0
2017-09-13T03:12:27.605Z,0
2017-09-13T03:13:27.930Z,0
2017-09-13T03:14:27.644Z,0
2017-09-13T03:15:28.393Z,0
2017-09-13T03:16:27.669Z,0
2017-09-13T03:17:28.330Z,0
2017-09-13T03:18:28.356Z,0
2017-09-13T03:19:28.049Z,0
2017-09-13T03:20:27.772Z,0
2017-09-13T03:21:28.704Z,0
2017-09-13T03:22:28.101Z,0
2017-09-13T03:23:27.788Z,0
2017-09-13T03:24:28.145Z,0
2017-09-13T03:25:28.635Z,0
2017-09-13T03:26:28.492Z,0
2017-09-13T03:27:28.524Z,0
2017-09-13T03:28:27.809Z,0
2017-09-13T03:29:28.549Z,0
2017-09-13T03:30:28.580Z,0
2017-09-13T03:31:28.596Z,0
2017-09-13T03:32:28.285Z,0
2017-09-13T03:33:28.961Z,0
2017-09-13T03:34:28.003Z,0
2017-09-13T03:35:28.524Z,0
2017-09-13T03:36:28.680Z,0
2017-09-13T03:37:28.076Z,0
2017-09-13T03:38:28.214Z,0
2017-09-13T03:39:28.747Z,0
2017-09-13T03:40:28.527Z,0
2017-09-13T03:41:28.172Z,0
2017-09-13T03:42:28.356Z,0
2017-09-13T03:43:28.584Z,0
2017-09-13T03:44:28.510Z,0
2017-09-13T03:45:28.982Z,0
2017-09-13T03:46:27.995Z,0
2017-09-13T03:47:28.813Z,0
2017-09-13T03:48:28.801Z,0
2017-09-13T03:49:28.714Z,0
2017-09-13T03:50:29.512Z,0
2017-09-13T03:51:29.187Z,0
2017-09-13T03:52:29.098Z,0
2017-09-13T03:53:28.803Z,0
2017-09-13T03:54:28.655Z,0
2017-09-13T03:55:28.468Z,0
2017-09-13T03:56:29.192Z,0
2017-09-13T03:57:29.060Z,0
2017-09-13T03:58:28.928Z,0
2017-09-13T03:59:29.197Z,0
2017-09-13T04:00:29.118Z,0
2017-09-13T04:01:28.814Z,0
2017-09-13T04:02:28.921Z,0
2017-09-13T04:03:28.893Z,0
2017-09-13T04:04:28.694Z,0
2017-09-13T04:05:29.649Z,0
2017-09-13T04:06:29.343Z,0
2017-09-13T04:07:28.723Z,0
2017-09-13T04:08:29.042Z,0
2017-09-13T04:09:28.314Z,0
2017-09-13T04:10:28.870Z,0
2017-09-13T04:11:28.882Z,0
2017-09-13T04:12:28.692Z,0
2017-09-13T04:13:29.533Z,0
2017-09-13T04:14:29.100Z,0
2017-09-13T04:15:29.424Z,0
2017-09-13T04:16:29.088Z,0
2017-09-13T04:17:28.773Z,0
2017-09-13T04:18:28.789Z,0
2017-09-13T04:19:29.502Z,0
2017-09-13T04:20:29.526Z,0
2017-09-13T04:21:29.584Z,0
2017-09-13T04:22:28.882Z,0
2017-09-13T04:23:28.891Z,0
2017-09-13T04:24:29.338Z,0
2017-09-13T04:25:30.146Z,0
2017-09-13T04:26:29.094Z,0
2017-09-13T04:27:28.666Z,0
2017-09-13T04:28:29.628Z,0
2017-09-13T04:29:28.989Z,0
2017-09-13T04:30:29.346Z,0
2017-09-13T04:31:29.688Z,0
2017-09-13T04:32:29.800Z,0
2017-09-13T04:33:29.395Z,0
2017-09-13T04:34:29.729Z,0
2017-09-13T04:35:29.121Z,0
2017-09-13T04:36:29.446Z,0
2017-09-13T04:37:29.785Z,0
2017-09-13T04:38:29.807Z,0
2017-09-13T04:39:29.175Z,0
2017-09-13T04:40:29.847Z,0
2017-09-13T04:41:28.888Z,0
2017-09-13T04:42:29.233Z,0
2017-09-13T04:43:29.905Z,0
2017-09-13T04:44:29.931Z,0
2017-09-13T04:45:29.624Z,0
2017-09-13T04:46:29.621Z,0
2017-09-13T04:47:29.651Z,0
2017-09-13T04:48:29.704Z,0
2017-09-13T04:49:29.699Z,0
2017-09-13T04:50:30.021Z,0
2017-09-13T04:51:30.043Z,0
2017-09-13T04:52:29.421Z,0
2017-09-13T04:53:29.757Z,0
2017-09-13T04:54:30.093Z,0
2017-09-13T04:55:30.121Z,0
2017-09-13T04:56:30.130Z,0
2017-09-13T04:57:29.827Z,0
2017-09-13T04:58:30.168Z,0
2017-09-13T04:59:29.532Z,0
2017-09-13T05:00:29.894Z,0
2017-09-13T05:01:29.895Z,0
2017-09-13T05:02:29.609Z,0
2017-09-13T05:03:30.687Z,0
2017-09-13T05:04:30.279Z,0
2017-09-13T05:05:30.708Z,0
2017-09-13T05:06:29.992Z,0
2017-09-13T05:07:30.011Z,0
2017-09-13T05:08:30.033Z,0
2017-09-13T05:09:29.403Z,0
2017-09-13T05:10:30.504Z,0
2017-09-13T05:11:30.289Z,0
2017-09-13T05:12:30.269Z,0
2017-09-13T05:13:29.894Z,0
2017-09-13T05:14:29.985Z,0
2017-09-13T05:15:30.852Z,0
2017-09-13T05:16:30.828Z,0
2017-09-13T05:17:29.985Z,0
2017-09-13T05:18:30.536Z,0
2017-09-13T05:19:30.870Z,0
2017-09-13T05:20:30.274Z,0
2017-09-13T05:21:30.914Z,0
2017-09-13T05:22:30.621Z,0
2017-09-13T05:23:30.315Z,0
2017-09-13T05:24:30.026Z,0
2017-09-13T05:25:31.490Z,0
2017-09-13T05:26:30.417Z,0
2017-09-13T05:27:30.698Z,0
2017-09-13T05:28:30.403Z,0
2017-09-13T05:29:30.740Z,0
2017-09-13T05:30:30.115Z,0
2017-09-13T05:31:30.439Z,0
2017-09-13T05:32:30.910Z,0
2017-09-13T05:33:30.922Z,0
2017-09-13T05:34:30.821Z,0
2017-09-13T05:35:30.880Z,0
2017-09-13T05:36:30.560Z,0
2017-09-13T05:37:30.234Z,0
2017-09-13T05:38:30.257Z,0
2017-09-13T05:39:30.912Z,0
2017-09-13T05:40:30.612Z,0
2017-09-13T05:41:31.289Z,0
2017-09-13T05:42:30.030Z,0
2017-09-13T05:43:30.799Z,0
2017-09-13T05:44:30.457Z,0
2017-09-13T05:45:30.462Z,0
2017-09-13T05:46:30.724Z,0
2017-09-13T05:47:31.060Z,0
2017-09-13T05:48:31.077Z,0
2017-09-13T05:49:30.799Z,0
2017-09-13T05:50:31.120Z,0
2017-09-13T05:51:30.554Z,0
2017-09-13T05:52:30.836Z,0
2017-09-13T05:53:31.520Z,0
2017-09-13T05:54:30.556Z,5
2017-09-13T05:55:31.650Z,5
2017-09-13T05:56:31.248Z,5
2017-09-13T05:57:31.252Z,5
2017-09-13T05:58:30.960Z,5
2017-09-13T05:59:30.969Z,5
2017-09-13T06:00:31.393Z,5
2017-09-13T06:01:30.676Z,5
2017-09-13T06:02:31.417Z,10
2017-09-13T06:03:31.033Z,10
2017-09-13T06:04:31.065Z,5
2017-09-13T06:05:31.070Z,5
2017-09-13T06:06:31.423Z,5
2017-09-13T06:07:31.563Z,5
2017-09-13T06:08:31.125Z,0
2017-09-13T06:09:31.791Z,0
2017-09-13T06:10:31.535Z,0
2017-09-13T06:11:31.511Z,0
2017-09-13T06:12:31.384Z,0
2017-09-13T06:13:31.411Z,0
2017-09-13T06:14:32.043Z,0
2017-09-13T06:15:32.036Z,0
2017-09-13T06:16:31.164Z,0
2017-09-13T06:17:31.709Z,0
2017-09-13T06:18:31.152Z,0
2017-09-13T06:19:31.471Z,0
2017-09-13T06:20:31.370Z,0
2017-09-13T06:21:31.039Z,0
2017-09-13T06:22:31.715Z,0
2017-09-13T06:23:32.041Z,0
2017-09-13T06:24:31.756Z,0
2017-09-13T06:25:32.643Z,0
2017-09-13T06:26:31.149Z,5
2017-09-13T06:27:31.804Z,5
2017-09-13T06:28:31.833Z,5
2017-09-13T06:29:32.175Z,5
2017-09-13T06:30:31.857Z,10
2017-09-13T06:31:31.562Z,5
2017-09-13T06:32:31.903Z,5
2017-09-13T06:33:31.693Z,5
2017-09-13T06:34:31.621Z,5
2017-09-13T06:35:32.066Z,10
2017-09-13T06:36:32.041Z,10
2017-09-13T06:37:31.993Z,10
2017-09-13T06:38:32.005Z,10
2017-09-13T06:39:32.035Z,10
2017-09-13T06:40:32.038Z,10
2017-09-13T06:41:31.853Z,10
2017-09-13T06:42:31.758Z,10
2017-09-13T06:43:31.773Z,10
2017-09-13T06:44:32.110Z,10
2017-09-13T06:45:32.142Z,10
2017-09-13T06:46:31.957Z,15
2017-09-13T06:47:32.609Z,15
2017-09-13T06:48:31.953Z,15
2017-09-13T06:49:31.986Z,10
2017-09-13T06:50:31.994Z,5
2017-09-13T06:51:31.852Z,10
2017-09-13T06:52:31.729Z,10
2017-09-13T06:53:31.959Z,15
2017-09-13T06:54:31.978Z,15
2017-09-13T06:55:31.992Z,20
2017-09-13T06:56:33.006Z,25
2017-09-13T06:57:33.053Z,25
2017-09-13T06:58:32.548Z,20
2017-09-13T06:59:32.548Z,15
2017-09-13T07:00:31.951Z,15
2017-09-13T07:01:31.786Z,10
2017-09-13T07:02:32.880Z,5
2017-09-13T07:03:32.231Z,5
2017-09-13T07:04:32.879Z,10
2017-09-13T07:05:32.919Z,15
2017-09-13T07:06:32.408Z,20
2017-09-13T07:07:31.971Z,15
2017-09-13T07:08:32.616Z,10
2017-09-13T07:09:32.942Z,10
2017-09-13T07:10:31.984Z,5
2017-09-13T07:11:32.661Z,5
2017-09-13T07:12:32.673Z,10
2017-09-13T07:13:32.666Z,10
2017-09-13T07:14:32.694Z,15
2017-09-13T07:15:32.382Z,15
2017-09-13T07:16:33.044Z,15
2017-09-13T07:17:32.741Z,15
2017-09-13T07:18:33.083Z,15
2017-09-13T07:19:32.772Z,15
2017-09-13T07:20:32.237Z,15
2017-09-13T07:21:32.881Z,10
2017-09-13T07:22:32.293Z,15
2017-09-13T07:23:32.284Z,15
2017-09-13T07:24:32.548Z,15
2017-09-13T07:25:33.211Z,10
2017-09-13T07:26:32.578Z,10
2017-09-13T07:27:33.256Z,5
2017-09-13T07:28:32.635Z,5
2017-09-13T07:29:32.953Z,5
2017-09-13T07:30:32.661Z,10
2017-09-13T07:31:32.101Z,10
2017-09-13T07:32:33.349Z,10
2017-09-13T07:33:33.061Z,10
2017-09-13T07:34:33.115Z,10
2017-09-13T07:35:32.438Z,10
2017-09-13T07:36:32.773Z,10
2017-09-13T07:37:32.467Z,10
2017-09-13T07:38:33.133Z,10
2017-09-13T07:39:33.155Z,10
2017-09-13T07:40:32.857Z,10
2017-09-13T07:41:32.873Z,10
2017-09-13T07:42:32.881Z,10
2017-09-13T07:43:32.905Z,10
2017-09-13T07:44:33.263Z,10
2017-09-13T07:45:32.940Z,10
2017-09-13T07:46:32.959Z,5
2017-09-13T07:47:32.656Z,10
2017-09-13T07:48:33.320Z,10
2017-09-13T07:49:32.691Z,10
2017-09-13T07:50:33.033Z,15
2017-09-13T07:51:32.727Z,10
2017-09-13T07:52:33.068Z,10
2017-09-13T07:53:33.742Z,10
2017-09-13T07:54:33.481Z,10
2017-09-13T07:55:33.801Z,10
2017-09-13T07:56:33.802Z,10
2017-09-13T07:57:33.172Z,10
2017-09-13T07:58:33.192Z,5
2017-09-13T07:59:32.574Z,5
2017-09-13T08:00:32.921Z,10
2017-09-13T08:01:33.580Z,10
2017-09-13T08:02:33.601Z,10
2017-09-13T08:03:33.921Z,15
2017-09-13T08:04:33.624Z,15
2017-09-13T08:05:33.324Z,10
2017-09-13T08:06:33.014Z,10
2017-09-13T08:07:33.034Z,10
2017-09-13T08:08:33.373Z,10
2017-09-13T08:09:33.098Z,10
2017-09-13T08:10:33.740Z,15
2017-09-13T08:11:33.760Z,10
2017-09-13T08:12:33.453Z,15
2017-09-13T08:13:33.475Z,15
2017-09-13T08:14:33.494Z,15
2017-09-13T08:15:33.838Z,15
2017-09-13T08:16:32.907Z,15
2017-09-13T08:17:34.187Z,10
2017-09-13T08:18:33.888Z,15
2017-09-13T08:19:34.235Z,15
2017-09-13T08:20:34.252Z,20
2017-09-13T08:21:32.973Z,10
2017-09-13T08:22:33.641Z,10
2017-09-13T08:23:33.985Z,15
2017-09-13T08:24:34.013Z,10
2017-09-13T08:25:34.024Z,10
2017-09-13T08:26:34.363Z,15
2017-09-13T08:27:33.744Z,10
2017-09-13T08:28:34.085Z,10
2017-09-13T08:29:33.451Z,10
2017-09-13T08:30:34.120Z,10
2017-09-13T08:31:33.818Z,10
2017-09-13T08:32:34.530Z,15
2017-09-13T08:33:33.533Z,20
2017-09-13T08:34:34.204Z,20
2017-09-13T08:35:34.347Z,25
2017-09-13T08:36:34.030Z,20
2017-09-13T08:37:34.031Z,15
2017-09-13T08:38:34.046Z,15
2017-09-13T08:39:33.323Z,20
2017-09-13T08:40:33.982Z,20
2017-09-13T08:41:34.375Z,15
2017-09-13T08:42:34.379Z,15
2017-09-13T08:43:34.362Z,15
2017-09-13T08:44:34.063Z,15
2017-09-13T08:45:33.436Z,15
2017-09-13T08:46:34.428Z,25
2017-09-13T08:47:34.120Z,20
2017-09-13T08:48:34.139Z,25
2017-09-13T08:49:33.970Z,25
2017-09-13T08:50:34.269Z,30
2017-09-13T08:51:34.606Z,30
2017-09-13T08:52:34.958Z,20
2017-09-13T08:53:34.653Z,25
2017-09-13T08:54:34.022Z,25
2017-09-13T08:55:34.505Z,25
2017-09-13T08:56:34.950Z,20
2017-09-13T08:57:34.650Z,35
2017-09-13T08:58:34.687Z,25
2017-09-13T08:59:34.048Z,25
2017-09-13T09:00:34.374Z,20
2017-09-13T09:01:35.048Z,30
2017-09-13T09:02:35.059Z,35
2017-09-13T09:03:34.757Z,35
2017-09-13T09:04:34.526Z,30
2017-09-13T09:05:35.108Z,35
2017-09-13T09:06:34.840Z,30
2017-09-13T09:07:34.195Z,35
2017-09-13T09:08:34.845Z,40
2017-09-13T09:09:33.901Z,35
2017-09-13T09:10:34.889Z,40
2017-09-13T09:11:34.915Z,30
2017-09-13T09:12:34.935Z,35
2017-09-13T09:13:34.620Z,30
2017-09-13T09:14:34.969Z,40
2017-09-13T09:15:34.990Z,40
2017-09-13T09:16:34.688Z,35
2017-09-13T09:17:34.701Z,40
2017-09-13T09:18:34.402Z,40
2017-09-13T09:19:34.752Z,40
2017-09-13T09:20:35.248Z,35
2017-09-13T09:21:35.245Z,15
2017-09-13T09:22:34.471Z,20
2017-09-13T09:23:35.243Z,45
2017-09-13T09:24:35.064Z,45
2017-09-13T09:25:35.373Z,45
2017-09-13T09:26:34.910Z,50
2017-09-13T09:27:35.397Z,50
2017-09-13T09:28:35.706Z,45
2017-09-13T09:29:35.058Z,40
2017-09-13T09:30:34.753Z,40
2017-09-13T09:31:35.395Z,40
2017-09-13T09:32:35.410Z,40
2017-09-13T09:33:34.919Z,35
2017-09-13T09:34:35.465Z,25
2017-09-13T09:35:36.273Z,35
2017-09-13T09:36:34.810Z,50
2017-09-13T09:37:35.564Z,50
2017-09-13T09:38:34.932Z,45
2017-09-13T09:39:35.269Z,35
2017-09-13T09:40:35.153Z,25
2017-09-13T09:41:35.709Z,30
2017-09-13T09:42:35.981Z,35
2017-09-13T09:43:35.859Z,30
2017-09-13T09:44:35.401Z,35
2017-09-13T09:45:35.579Z,45
2017-09-13T09:46:35.808Z,60
2017-09-13T09:47:35.806Z,60
2017-09-13T09:48:35.961Z,60
2017-09-13T09:49:35.111Z,60
2017-09-13T09:50:35.684Z,65
2017-09-13T09:51:35.466Z,45
2017-09-13T09:52:35.466Z,35
2017-09-13T09:53:35.468Z,30
2017-09-13T09:54:36.078Z,25
2017-09-13T09:55:35.474Z,20
2017-09-13T09:56:35.473Z,30
2017-09-13T09:57:35.173Z,20
2017-09-13T09:58:35.522Z,15
2017-09-13T09:59:35.874Z,10
2017-09-13T10:00:35.892Z,10
2017-09-13T10:01:35.585Z,10
2017-09-13T10:02:35.597Z,10
2017-09-13T10:03:35.623Z,15
2017-09-13T10:04:36.284Z,10
2017-09-13T10:05:35.342Z,15
2017-09-13T10:06:35.362Z,10
2017-09-13T10:07:35.378Z,10
2017-09-13T10:08:35.405Z,10
2017-09-13T10:09:35.419Z,10
2017-09-13T10:10:36.088Z,20
2017-09-13T10:11:35.464Z,15
2017-09-13T10:12:35.809Z,15
2017-09-13T10:13:36.155Z,15
2017-09-13T10:14:36.167Z,20
2017-09-13T10:15:36.524Z,20
2017-09-13T10:16:35.891Z,20
2017-09-13T10:17:35.267Z,20
2017-09-13T10:18:35.930Z,15
2017-09-13T10:19:36.296Z,10
2017-09-13T10:20:36.302Z,5
2017-09-13T10:21:35.995Z,10
2017-09-13T10:22:36.349Z,10
2017-09-13T10:23:36.385Z,10
2017-09-13T10:24:36.590Z,15
2017-09-13T10:25:36.080Z,15
2017-09-13T10:26:36.102Z,15
2017-09-13T10:27:36.125Z,15
2017-09-13T10:28:36.473Z,15
2017-09-13T10:29:36.817Z,10
2017-09-13T10:30:35.861Z,10
2017-09-13T10:31:36.523Z,15
2017-09-13T10:32:36.545Z,15
2017-09-13T10:33:36.568Z,15
2017-09-13T10:34:35.937Z,15
2017-09-13T10:35:36.291Z,15
2017-09-13T10:36:36.311Z,15
2017-09-13T10:37:35.726Z,20
2017-09-13T10:38:36.355Z,20
2017-09-13T10:39:36.369Z,20
2017-09-13T10:40:36.428Z,30
2017-09-13T10:41:36.415Z,20
2017-09-13T10:42:36.962Z,35
2017-09-13T10:43:36.784Z,35
2017-09-13T10:44:36.814Z,35
2017-09-13T10:45:36.493Z,25
2017-09-13T10:46:37.209Z,20
2017-09-13T10:47:35.896Z,25
2017-09-13T10:48:36.561Z,30
2017-09-13T10:49:37.228Z,30
2017-09-13T10:50:36.612Z,35
2017-09-13T10:51:36.651Z,40
2017-09-13T10:52:36.991Z,50
2017-09-13T10:53:36.667Z,35
2017-09-13T10:54:37.004Z,25
2017-09-13T10:55:36.728Z,20
2017-09-13T10:56:36.770Z,15
2017-09-13T10:57:36.740Z,15
2017-09-13T10:58:36.786Z,25
2017-09-13T10:59:36.794Z,20
2017-09-13T11:00:36.821Z,25
2017-09-13T11:01:37.211Z,20
2017-09-13T11:02:36.556Z,35
2017-09-13T11:03:37.666Z,35
2017-09-13T11:04:37.366Z,25
2017-09-13T11:05:37.340Z,20
2017-09-13T11:06:37.052Z,25
2017-09-13T11:07:36.960Z,25
2017-09-13T11:08:36.669Z,30
2017-09-13T11:09:37.337Z,25
2017-09-13T11:10:36.840Z,25
2017-09-13T11:11:37.782Z,30
2017-09-13T11:12:37.490Z,35
2017-09-13T11:13:37.335Z,30
2017-09-13T11:14:37.983Z,25
2017-09-13T11:15:37.669Z,40
2017-09-13T11:16:37.674Z,35
2017-09-13T11:17:37.346Z,55
2017-09-13T11:18:37.032Z,45
2017-09-13T11:19:37.642Z,55
2017-09-13T11:20:37.667Z,10
2017-09-13T11:21:37.358Z,25
2017-09-13T11:22:37.175Z,20
2017-09-13T11:23:37.720Z,45
2017-09-13T11:24:37.527Z,50
2017-09-13T11:25:37.134Z,45
2017-09-13T11:26:37.700Z,20
2017-09-13T11:27:37.824Z,25
2017-09-13T11:28:37.781Z,35
2017-09-13T11:29:37.444Z,20
2017-09-13T11:30:37.458Z,30
2017-09-13T11:31:37.467Z,25
2017-09-13T11:32:37.509Z,25
2017-09-13T11:33:37.832Z,20
2017-09-13T11:34:37.580Z,20
2017-09-13T11:35:37.982Z,15
2017-09-13T11:36:38.280Z,20
2017-09-13T11:37:37.979Z,30
2017-09-13T11:38:37.619Z,20
2017-09-13T11:39:37.987Z,35
2017-09-13T11:40:38.117Z,25
2017-09-13T11:41:38.116Z,40
2017-09-13T11:42:37.705Z,35
2017-09-13T11:43:37.410Z,35
2017-09-13T11:44:37.422Z,30
2017-09-13T11:45:37.767Z,45
2017-09-13T11:46:37.792Z,35
2017-09-13T11:47:37.810Z,25
2017-09-13T11:48:37.831Z,20
2017-09-13T11:49:38.285Z,20
2017-09-13T11:50:38.295Z,40
2017-09-13T11:51:38.293Z,35
2017-09-13T11:52:37.595Z,40
2017-09-13T11:53:38.292Z,25
2017-09-13T11:54:38.399Z,20
2017-09-13T11:55:37.659Z,10
2017-09-13T11:56:38.324Z,10
2017-09-13T11:57:38.131Z,10
2017-09-13T11:58:38.383Z,15
2017-09-13T11:59:38.270Z,30
2017-09-13T12:00:38.154Z,15
2017-09-13T12:01:38.762Z,15
2017-09-13T12:02:38.457Z,20
2017-09-13T12:03:38.484Z,25
2017-09-13T12:04:38.516Z,25
2017-09-13T12:05:38.534Z,30
2017-09-13T12:06:37.900Z,20
2017-09-13T12:07:38.571Z,15
2017-09-13T12:08:38.262Z,10
2017-09-13T12:09:38.940Z,10
2017-09-13T12:10:38.310Z,10
2017-09-13T12:11:38.331Z,20
2017-09-13T12:12:38.351Z,20
2017-09-13T12:13:38.376Z,10
2017-09-13T12:14:38.392Z,35
2017-09-13T12:15:38.168Z,50
2017-09-13T12:16:39.093Z,40
2017-09-13T12:17:38.463Z,25
2017-09-13T12:18:38.482Z,30
2017-09-13T12:19:38.515Z,25
2017-09-13T12:20:38.562Z,25
2017-09-13T12:21:38.556Z,20
2017-09-13T12:22:38.913Z,20
2017-09-13T12:23:38.593Z,30
2017-09-13T12:24:38.948Z,30
2017-09-13T12:25:38.654Z,50
2017-09-13T12:26:38.671Z,30
2017-09-13T12:27:39.335Z,45
2017-09-13T12:28:38.709Z,40
2017-09-13T12:29:38.411Z,35
2017-09-13T12:30:38.526Z,35
2017-09-13T12:31:39.152Z,40
2017-09-13T12:32:38.479Z,30
2017-09-13T12:33:38.502Z,25
2017-09-13T12:34:38.836Z,30
2017-09-13T12:35:38.868Z,35
2017-09-13T12:36:38.876Z,35
2017-09-13T12:37:38.901Z,40
2017-09-13T12:38:39.266Z,50
2017-09-13T12:39:38.628Z,40
2017-09-13T12:40:38.325Z,45
2017-09-13T12:41:38.998Z,45
2017-09-13T12:42:39.337Z,25
2017-09-13T12:43:39.359Z,30
2017-09-13T12:44:39.713Z,20
2017-09-13T12:45:39.738Z,30
2017-09-13T12:46:38.789Z,30
2017-09-13T12:47:39.135Z,35
2017-09-13T12:48:39.156Z,25
2017-09-13T12:49:39.401Z,20
2017-09-13T12:50:39.201Z,25
2017-09-13T12:51:39.245Z,40
2017-09-13T12:52:39.570Z,30
2017-09-13T12:53:39.592Z,25
2017-09-13T12:54:39.611Z,45
2017-09-13T12:55:39.977Z,45
2017-09-13T12:56:39.656Z,40
2017-09-13T12:57:39.674Z,40
2017-09-13T12:58:39.372Z,55
2017-09-13T12:59:39.145Z,45
2017-09-13T13:00:39.752Z,45
2017-09-13T13:01:40.091Z,40
2017-09-13T13:02:40.118Z,55
2017-09-13T13:03:39.811Z,40
2017-09-13T13:04:39.834Z,40
2017-09-13T13:05:40.188Z,40
2017-09-13T13:06:39.877Z,35
2017-09-13T13:07:39.897Z,45
2017-09-13T13:08:39.609Z,50
2017-09-13T13:09:39.950Z,35
2017-09-13T13:10:39.983Z,35
2017-09-13T13:11:39.887Z,35
2017-09-13T13:12:40.023Z,30
2017-09-13T13:13:39.395Z,35
2017-09-13T13:14:40.063Z,25
2017-09-13T13:15:40.091Z,25
2017-09-13T13:16:40.120Z,25
2017-09-13T13:17:40.461Z,15
2017-09-13T13:18:40.478Z,15
2017-09-13T13:19:39.853Z,5
2017-09-13T13:20:39.887Z,10
2017-09-13T13:21:39.921Z,5
2017-09-13T13:22:39.929Z,5
2017-09-13T13:23:40.300Z,15
2017-09-13T13:24:39.653Z,15
2017-09-13T13:25:40.010Z,15
2017-09-13T13:26:39.702Z,10
2017-09-13T13:27:39.721Z,5
2017-09-13T13:28:39.781Z,5
2017-09-13T13:29:40.089Z,5
2017-09-13T13:30:40.769Z,10
2017-09-13T13:31:40.164Z,10
2017-09-13T13:32:39.836Z,10
2017-09-13T13:33:40.511Z,10
2017-09-13T13:34:39.907Z,10
2017-09-13T13:35:39.929Z,10
2017-09-13T13:36:39.926Z,5
2017-09-13T13:37:39.955Z,5
2017-09-13T13:38:40.964Z,10
2017-09-13T13:39:39.673Z,30
2017-09-13T13:40:41.086Z,20
2017-09-13T13:41:40.708Z,10
2017-09-13T13:42:40.064Z,10
2017-09-13T13:43:40.419Z,10
2017-09-13T13:44:40.434Z,10
2017-09-13T13:45:40.462Z,5
2017-09-13T13:46:40.930Z,10
2017-09-13T13:47:40.939Z,5
2017-09-13T13:48:40.938Z,10
2017-09-13T13:49:40.227Z,10
2017-09-13T13:50:40.573Z,10
2017-09-13T13:51:40.986Z,10
2017-09-13T13:52:41.417Z,10
2017-09-13T13:53:41.426Z,5
2017-09-13T13:54:40.667Z,10
2017-09-13T13:55:41.463Z,10
2017-09-13T13:56:41.170Z,10
2017-09-13T13:57:41.166Z,10
2017-09-13T13:58:41.318Z,15
2017-09-13T13:59:40.998Z,10
2017-09-13T14:00:40.865Z,25
2017-09-13T14:01:40.871Z,20
2017-09-13T14:02:41.538Z,35
2017-09-13T14:03:40.555Z,15
2017-09-13T14:04:40.245Z,20
2017-09-13T14:05:41.575Z,15
2017-09-13T14:06:41.026Z,10
2017-09-13T14:07:41.155Z,5
2017-09-13T14:08:41.645Z,5
2017-09-13T14:09:41.151Z,10
2017-09-13T14:10:41.360Z,15
2017-09-13T14:11:41.324Z,15
2017-09-13T14:12:41.465Z,10
2017-09-13T14:13:41.256Z,10
2017-09-13T14:14:41.192Z,5
2017-09-13T14:15:40.876Z,5
2017-09-13T14:16:41.825Z,10
2017-09-13T14:17:41.512Z,5
2017-09-13T14:18:41.215Z,15
2017-09-13T14:19:41.568Z,20
2017-09-13T14:20:41.262Z,15
2017-09-13T14:21:41.284Z,5
2017-09-13T14:22:41.317Z,10
2017-09-13T14:23:42.066Z,30
2017-09-13T14:24:41.031Z,35
2017-09-13T14:25:41.701Z,20
2017-09-13T14:26:41.700Z,25
2017-09-13T14:27:42.181Z,30
2017-09-13T14:28:41.127Z,20
2017-09-13T14:29:42.043Z,30
2017-09-13T14:30:42.376Z,15